Forside
METAR-TAF:

METAR-TAF

Lufthavne :

Capital City Airport

Frankfort, Kentucky, USA

Breddekreds: 38-11-05N, længdekreds: 084-54-12W, højde: 245 m

Aktuelle vejr

Denne rapport blev lavet for 32 minutter siden, kl. 17:53 UTC
Vind 10 kt fra sydsydvest
Temperatur 12°C
Fugtighed 32%
Tryk 1020 hPa
Sigt: 16.1 km
Overskyet i en højde af 8500 ft

METAR: KFFT 231753Z AUTO 21010KT 10SM OVC085 12/M04 A3012 RMK AO2 SLP205 T01171044 10122 21028 58022

Tid: 13:25 (18:25 UTC)


TAF: fraværende

Vejrobservationer og prognoser fra mere end 4000 lufthavne (METAR og TAF).

De gule og røde prikker repræsenterer de meteorologiske stationer.

Flyt musen over at se navnet på stationen.

Så klik over at se vejr observationer og prognoser.

At skifte det kort: Klik på de grønne knapper med et sort kors for at zoome ind; på den grønne knap med en bindestreg for at zoome ud; eller på de grønne pile for tilstødende kort.


METAR-TAF: